1885 NOT_NAMED (1885230N12136)


IBTrACS version v04r00. Visit IBTrACS website for data access.
Please direct all questions to the IBTrACS Q and A forum

Storm track - Intensity - Wind Radii - Intensity Data - Source Data - All data

Summary Information

Storm ID 1885230N12136
Start Aug 17 16Z
Landfall Aug 24 09Z, Aug 24 21Z
End Aug 25 04Z
ATCF IDs
Track status Best track data.

Storm track plot

Map of storm track

Intensity plots

No Intensity information for this storm


Radial wind information

No radial wind information for this storm


Position and Intensity Table

BASIN ISO_TIME_________ NATURE LAT LON
degrees north degrees east
WP 1885-08-17 16:00:00 NR 11.50 136.30
WP 18:00:00 NR 11.56 136.19
WP 21:00:00 NR 11.65 136.01
WP 1885-08-18 00:00:00 NR 11.75 135.84
WP 03:00:00 NR 11.86 135.66
WP 04:00:00 NR 11.90 135.60
WP 06:00:00 NR 11.98 135.48
WP 09:00:00 NR 12.11 135.30
WP 12:00:00 NR 12.24 135.12
WP 15:00:00 NR 12.36 134.95
WP 16:00:00 NR 12.40 134.90
WP 18:00:00 NR 12.45 134.81
WP 21:00:00 NR 12.52 134.70
WP 1885-08-19 00:00:00 NR 12.59 134.58
WP 03:00:00 NR 12.67 134.45
WP 04:00:00 NR 12.70 134.40
WP 06:00:00 NR 12.78 134.28
WP 09:00:00 NR 12.93 134.09
WP 12:00:00 NR 13.08 133.88
WP 15:00:00 NR 13.25 133.67
WP 16:00:00 NR 13.30 133.60
WP 18:00:00 NR 13.40 133.47
WP 21:00:00 NR 13.55 133.27
WP 1885-08-20 00:00:00 NR 13.70 133.07
WP 03:00:00 NR 13.85 132.87
WP 04:00:00 NR 13.90 132.80
WP 06:00:00 NR 14.00 132.67
WP 09:00:00 NR 14.16 132.47
WP 12:00:00 NR 14.31 132.27
WP 15:00:00 NR 14.45 132.07
WP 16:00:00 NR 14.50 132.00
WP 18:00:00 NR 14.58 131.88
WP 21:00:00 NR 14.69 131.70
WP 1885-08-21 00:00:00 NR 14.81 131.51
WP 03:00:00 NR 14.95 131.28
WP 04:00:00 NR 15.00 131.20
WP 06:00:00 NR 15.13 131.01
WP 09:00:00 NR 15.34 130.69
WP 12:00:00 NR 15.58 130.34
WP 15:00:00 NR 15.82 130.01
WP 16:00:00 NR 15.90 129.90
WP 18:00:00 NR 16.04 129.72
WP 21:00:00 NR 16.25 129.46
WP 1885-08-22 00:00:00 NR 16.48 129.19
WP 03:00:00 NR 16.71 128.91
WP 04:00:00 NR 16.80 128.80
WP 06:00:00 NR 16.98 128.57
WP 09:00:00 NR 17.27 128.19
WP 12:00:00 NR 17.58 127.78
WP 15:00:00 NR 17.89 127.35
WP 16:00:00 NR 18.00 127.20
WP 18:00:00 NR 18.21 126.91
WP 21:00:00 NR 18.53 126.47
WP 1885-08-23 00:00:00 NR 18.86 126.02
WP 03:00:00 NR 19.19 125.56
WP 04:00:00 NR 19.30 125.40
WP 06:00:00 NR 19.51 125.09
WP 09:00:00 NR 19.81 124.63
WP 12:00:00 NR 20.13 124.15
WP 15:00:00 NR 20.48 123.67
WP 16:00:00 NR 20.60 123.50
WP 18:00:00 NR 20.84 123.15
WP 21:00:00 NR 21.24 122.60
WP 1885-08-24 00:00:00 NR 21.66 122.06
WP 03:00:00 NR 22.13 121.56
WP 04:00:00 NR 22.30 121.40
WP 06:00:00 NR 22.67 121.14
WP 09:00:00 NR 23.27 120.78
WP 12:00:00 NR 23.88 120.43
WP 15:00:00 NR 24.43 120.04
WP 16:00:00 NR 24.60 119.90
WP 18:00:00 NR 24.90 119.58
WP 21:00:00 NR 25.26 119.04
WP 1885-08-25 00:00:00 NR 25.56 118.44
WP 03:00:00 NR 25.82 117.81
WP 04:00:00 NR 25.90 117.60

Source Information

Agency Information
USA
TOKYO
CMA
HKO
NEWDELHI
REUNION
BOM
NADI
WELLINGTON
DS824
TD9636 cons_worldwide_trop_cyclone_18710101-19891231-003:Line=210
TD9635
NEUMANN
MLC

All available IBTrACS Data

SEASON BASIN SUBBASIN ISO_TIME_________ NATURE LAT LON DIST2LAND LANDFALL IFLAG USA SSHS TD9636 LAT TD9636 LON TD9636 STAGE STORM SPEED STORM DIR
Year degrees north degrees east km km 1 degrees north degrees east kts degrees
1885 WP MM 1885-08-17 16:00:00 NR 11.50 136.30 1135 1124 __________O___ -1 11.50 136.30 7 4 299
1885 WP MM 18:00:00 NR 11.56 136.19 1126 1105 __________P___ -1 11.56 136.19 7 4 298
1885 WP MM 21:00:00 NR 11.65 136.01 1108 1087 __________P___ -1 11.65 136.01 7 4 299
1885 WP MM 1885-08-18 00:00:00 NR 11.75 135.84 1089 1079 __________P___ -1 11.75 135.84 7 4 301
1885 WP MM 03:00:00 NR 11.86 135.66 1082 1071 __________P___ -1 11.86 135.66 7 4 302
1885 WP MM 04:00:00 NR 11.90 135.60 1071 1061 __________O___ -1 11.90 135.60 7 4 304
1885 WP MM 06:00:00 NR 11.98 135.48 1063 1042 __________P___ -1 11.98 135.48 7 4 306
1885 WP MM 09:00:00 NR 12.11 135.30 1042 1022 __________P___ -1 12.11 135.30 7 4 307
1885 WP MM 12:00:00 NR 12.24 135.12 1022 1013 __________P___ -1 12.24 135.12 7 4 307
1885 WP MM 15:00:00 NR 12.36 134.95 1014 1003 __________P___ -1 12.36 134.95 7 4 306
1885 WP MM 16:00:00 NR 12.40 134.90 1003 993 __________O___ -1 12.40 134.90 7 3 303
1885 WP MM 18:00:00 NR 12.45 134.81 994 983 __________P___ -1 12.45 134.81 7 3 301
1885 WP MM 21:00:00 NR 12.52 134.70 983 973 __________P___ -1 12.52 134.70 7 3 301
1885 WP MM 1885-08-19 00:00:00 NR 12.59 134.58 975 955 __________P___ -1 12.59 134.58 7 3 301
1885 WP MM 03:00:00 NR 12.67 134.45 955 955 __________P___ -1 12.67 134.45 7 3 303
1885 WP MM 04:00:00 NR 12.70 134.40 955 944 __________O___ -1 12.70 134.40 7 4 305
1885 WP MM 06:00:00 NR 12.78 134.28 947 928 __________P___ -1 12.78 134.28 7 5 307
1885 WP MM 09:00:00 NR 12.93 134.09 928 909 __________P___ -1 12.93 134.09 7 5 308
1885 WP MM 12:00:00 NR 13.08 133.88 912 894 __________P___ -1 13.08 133.88 7 5 308
1885 WP MM 15:00:00 NR 13.25 133.67 894 886 __________P___ -1 13.25 133.67 7 5 308
1885 WP MM 16:00:00 NR 13.30 133.60 886 876 __________O___ -1 13.30 133.60 7 5 308
1885 WP MM 18:00:00 NR 13.40 133.47 878 858 __________P___ -1 13.40 133.47 7 5 308
1885 WP MM 21:00:00 NR 13.55 133.27 858 838 __________P___ -1 13.55 133.27 7 5 308
1885 WP MM 1885-08-20 00:00:00 NR 13.70 133.07 840 821 __________P___ -1 13.70 133.07 7 5 308
1885 WP MM 03:00:00 NR 13.85 132.87 821 813 __________P___ -1 13.85 132.87 7 5 307
1885 WP MM 04:00:00 NR 13.90 132.80 813 803 __________O___ -1 13.90 132.80 7 5 308
1885 WP MM 06:00:00 NR 14.00 132.67 805 787 __________P___ -1 14.00 132.67 7 5 308
1885 WP MM 09:00:00 NR 14.16 132.47 790 769 __________P___ -1 14.16 132.47 7 5 308
1885 WP MM 12:00:00 NR 14.31 132.27 772 755 __________P___ -1 14.31 132.27 7 5 307
1885 WP MM 15:00:00 NR 14.45 132.07 759 749 __________P___ -1 14.45 132.07 7 5 306
1885 WP MM 16:00:00 NR 14.50 132.00 749 739 __________O___ -1 14.50 132.00 7 4 305
1885 WP MM 18:00:00 NR 14.58 131.88 742 726 __________P___ -1 14.58 131.88 7 4 303
1885 WP MM 21:00:00 NR 14.69 131.70 726 711 __________P___ -1 14.69 131.70 7 4 302
1885 WP MM 1885-08-21 00:00:00 NR 14.81 131.51 711 696 __________P___ -1 14.81 131.51 7 5 303
1885 WP MM 03:00:00 NR 14.95 131.28 696 691 __________P___ -1 14.95 131.28 7 5 303
1885 WP MM 04:00:00 NR 15.00 131.20 691 677 __________O___ -1 15.00 131.20 3 6 304
1885 WP MM 06:00:00 NR 15.13 131.01 677 660 __________P___ -1 15.13 131.01 3 7 305
1885 WP MM 09:00:00 NR 15.34 130.69 660 643 __________P___ -1 15.34 130.69 3 8 305
1885 WP MM 12:00:00 NR 15.58 130.34 643 631 __________P___ -1 15.58 130.34 3 8 306
1885 WP MM 15:00:00 NR 15.82 130.01 631 630 __________P___ -1 15.82 130.01 3 8 307
1885 WP MM 16:00:00 NR 15.90 129.90 630 616 __________O___ -1 15.90 129.90 4 7 309
1885 WP MM 18:00:00 NR 16.04 129.72 616 605 __________P___ -1 16.04 129.72 4 7 310
1885 WP MM 21:00:00 NR 16.25 129.46 610 586 __________P___ -1 16.25 129.46 4 7 311
1885 WP MM 1885-08-22 00:00:00 NR 16.48 129.19 591 575 __________P___ -1 16.48 129.19 4 7 311
1885 WP MM 03:00:00 NR 16.71 128.91 575 572 __________P___ -1 16.71 128.91 4 7 311
1885 WP MM 04:00:00 NR 16.80 128.80 572 561 __________O___ -1 16.80 128.80 4 8 309
1885 WP MM 06:00:00 NR 16.98 128.57 568 549 __________P___ -1 16.98 128.57 4 9 309
1885 WP MM 09:00:00 NR 17.27 128.19 557 542 __________P___ -1 17.27 128.19 4 10 308
1885 WP MM 12:00:00 NR 17.58 127.78 550 519 __________P___ -1 17.58 127.78 4 10 308
1885 WP MM 15:00:00 NR 17.89 127.35 519 510 __________P___ -1 17.89 127.35 4 10 308
1885 WP MM 16:00:00 NR 18.00 127.20 510 485 __________O___ -1 18.00 127.20 4 10 308
1885 WP MM 18:00:00 NR 18.21 126.91 485 443 __________P___ -1 18.21 126.91 4 11 308
1885 WP MM 21:00:00 NR 18.53 126.47 443 392 __________P___ -1 18.53 126.47 4 11 307
1885 WP MM 1885-08-23 00:00:00 NR 18.86 126.02 393 356 __________P___ -1 18.86 126.02 4 11 307
1885 WP MM 03:00:00 NR 19.19 125.56 358 341 __________P___ -1 19.19 125.56 4 11 307
1885 WP MM 04:00:00 NR 19.30 125.40 341 319 __________O___ -1 19.30 125.40 4 11 306
1885 WP MM 06:00:00 NR 19.51 125.09 319 287 __________P___ -1 19.51 125.09 4 11 305
1885 WP MM 09:00:00 NR 19.81 124.63 287 275 __________P___ -1 19.81 124.63 4 11 305
1885 WP MM 12:00:00 NR 20.13 124.15 275 267 __________P___ -1 20.13 124.15 4 11 306
1885 WP MM 15:00:00 NR 20.48 123.67 276 271 __________P___ -1 20.48 123.67 4 12 307
1885 WP MM 16:00:00 NR 20.60 123.50 276 258 __________O___ -1 20.60 123.50 4 12 307
1885 WP MM 18:00:00 NR 20.84 123.15 258 192 __________P___ -1 20.84 123.15 4 13 307
1885 WP MM 21:00:00 NR 21.24 122.60 192 125 __________P___ -1 21.24 122.60 4 13 309
1885 WP MM 1885-08-24 00:00:00 NR 21.66 122.06 125 72 __________P___ -1 21.66 122.06 4 13 313
1885 WP MM 03:00:00 NR 22.13 121.56 72 51 __________P___ -1 22.13 121.56 4 13 316
1885 WP MM 04:00:00 NR 22.30 121.40 51 10 __________O___ -1 22.30 121.40 4 13 324
1885 WP MM 06:00:00 NR 22.67 121.14 10 0 __________P___ -1 22.67 121.14 4 14 330
1885 WP MM 09:00:00 NR 23.27 120.78 0 0 __________P___ -1 23.27 120.78 4 14 332
1885 WP MM 12:00:00 NR 23.88 120.43 0 0 __________P___ -1 23.88 120.43 4 13 330
1885 WP MM 15:00:00 NR 24.43 120.04 52 60 __________P___ -1 24.43 120.04 4 13 326
1885 WP MM 16:00:00 NR 24.60 119.90 74 44 __________O___ -1 24.60 119.90 4 13 318
1885 WP MM 18:00:00 NR 24.90 119.58 44 0 __________P___ -1 24.90 119.58 4 12 310
1885 WP MM 21:00:00 NR 25.26 119.04 0 0 __________P___ -1 25.26 119.04 4 12 303
1885 WP MM 1885-08-25 00:00:00 NR 25.56 118.44 0 0 __________P___ -1 25.56 118.44 4 12 297
1885 WP MM 03:00:00 NR 25.82 117.81 0 0 __________P___ -1 25.82 117.81 4 12 294
1885 WP MM 04:00:00 NR 25.90 117.60 0 __________O___ -1 25.90 117.60 4 13 293